Boca Chica, Texas
Current Conditions -  °F | °C
As of 3:53 AM on Saturday 25 Oct 2014 (Local Time) from KBRO Reporting Station
Clear Clear  
Wind Chill: 66°   Ceiling: Unl
Heat Index: 66°   Visibility: 8mi
Dew Point: 65°   Wind: 3mph
Humidity: 96%   Direction: 310°NW
Pressure: 30.11"   Gusts: NA
Location:  26.0002°N, 97.5729°W
Report Text: KBRO 250853Z AUTO 31003KT 8SM CLR 19/18 A3011 RMK AO2 SLP195 T01890183 56007 TSNO
Loading
Personal Weather Stations






























Interactive Weather Map
Tropical Storm Tracking
New forecast layout! Learn more

10-Day Weather Forecast

Advertisements
Track Severe Weather on mobile